Etusivu
METAR-TAF:

METAR-TAF

Lentoasemat :

Punta Arenas, Chile

Leveyspiiri: 53-00S, Pituuspiiri: 070-51W, korkeus merenpinnasta: 37 m

Tämänhetkinen sää

Tämä raportti tehtiin 16 minuuttia sitten, kello 06.00 UTC
Tuuli 20 kn lännestä/lounaasta
Lämpötila 1°C
Kosteus 86%
Ilmanpaine 989 hPa
Näkyvyys 10 km tai enemmän

METAR: SCCI 120600Z AUTO 25020KT 9999 SCT100/// 01/M01 Q0989

Aika: 02:16 (06:16 UTC)

Sääennuste

Tämä raportti tehtiin 2 tuntia ja 16 minuuttia sitten, kello 04.00 UTC
Ennuste voimassa 12. päivästä klo 06 UTC - 13. päivään klo 06 UTC
Tuuli 27 kn lännestä
Näkyvyys: 9000 m
Muutamia pilviä 1200 ft:n korkeudessa
Hajanaisia pilviä 4000 ft:n korkeudessa
Tulossa
12. päivästä klo 16 UTC - 12. päivään klo 18 UTC
Tuuli 20 kn lounaasta
Tulossa
12. päivästä klo 20 UTC - 12. päivään klo 22 UTC
Hajonneita pilviä 2000 ft:n korkeudessa

TAF: SCCI 120400Z 1206/1306 26027KT 9000 FEW012 SCT040 TN00/1212Z TX04/1218Z BECMG 1216/1218 23020KT BECMG 1220/1222 BKN020

Säähavainnot ja -ennusteet yli 4000 lentoasemalta (METAR- ja TAF-raportit).

Käytössä olevat sääasemat on merkitty karttaan keltaisilla ja punaisilla pisteillä.

Aseta hiiri pisteen päälle nähdäksesi sääaseman nimen.

Klikkaa sitten nähdäksesi säähavainnot ja -ennusteet.

Kartan vaihtaminen: klikkaa mustalla rastilla varustettuja vihreitä pisteitä, niin voit zoomata sisään; viivalla varustettua vihreää pistettä, niin voit zoomata ulos tai vihreitä nuolia, niin pääset viereisille kartoille.


METAR-TAF: